sensor_id;sensor_type;location;lat;lon;timestamp;temperature;humidity
28244;DHT22;15510;52.512;13.300;2023-04-22T00:00:40;13.50;99.90
28244;DHT22;15510;52.512;13.300;2023-04-22T00:03:07;13.50;99.90
28244;DHT22;15510;52.512;13.300;2023-04-22T00:05:33;13.50;99.90
28244;DHT22;15510;52.512;13.300;2023-04-22T00:07:59;13.50;99.90
28244;DHT22;15510;52.512;13.300;2023-04-22T00:10:25;13.40;99.90
28244;DHT22;15510;52.512;13.300;2023-04-22T00:12:51;13.50;99.90
28244;DHT22;15510;52.512;13.300;2023-04-22T00:15:17;13.50;99.90
28244;DHT22;15510;52.512;13.300;2023-04-22T00:17:48;13.40;99.90
28244;DHT22;15510;52.512;13.300;2023-04-22T00:20:14;13.40;99.90
28244;DHT22;15510;52.512;13.300;2023-04-22T00:22:41;13.40;99.90
28244;DHT22;15510;52.512;13.300;2023-04-22T00:25:07;13.40;99.90
28244;DHT22;15510;52.512;13.300;2023-04-22T00:27:33;13.30;99.90
28244;DHT22;15510;52.512;13.300;2023-04-22T00:29:58;13.40;99.90
28244;DHT22;15510;52.512;13.300;2023-04-22T00:32:24;13.40;99.90
28244;DHT22;15510;52.512;13.300;2023-04-22T00:34:51;13.40;99.90
28244;DHT22;15510;52.512;13.300;2023-04-22T00:37:16;13.30;99.90
28244;DHT22;15510;52.512;13.300;2023-04-22T00:39:42;13.30;99.90
28244;DHT22;15510;52.512;13.300;2023-04-22T00:42:08;13.30;99.90
28244;DHT22;15510;52.512;13.300;2023-04-22T00:44:35;13.30;99.90
28244;DHT22;15510;52.512;13.300;2023-04-22T00:47:00;13.20;99.90
28244;DHT22;15510;52.512;13.300;2023-04-22T00:49:26;13.20;99.90
28244;DHT22;15510;52.512;13.300;2023-04-22T00:51:52;13.20;99.90
28244;DHT22;15510;52.512;13.300;2023-04-22T00:54:18;13.10;99.90
28244;DHT22;15510;52.512;13.300;2023-04-22T00:56:44;13.10;99.90
28244;DHT22;15510;52.512;13.300;2023-04-22T00:59:11;13.10;99.90
28244;DHT22;15510;52.512;13.300;2023-04-22T01:01:37;13.00;99.90
28244;DHT22;15510;52.512;13.300;2023-04-22T01:04:03;13.00;99.90
28244;DHT22;15510;52.512;13.300;2023-04-22T01:06:30;12.90;99.90
28244;DHT22;15510;52.512;13.300;2023-04-22T01:08:58;12.90;99.90
28244;DHT22;15510;52.512;13.300;2023-04-22T01:11:24;13.00;99.90
28244;DHT22;15510;52.512;13.300;2023-04-22T01:13:50;12.90;99.90
28244;DHT22;15510;52.512;13.300;2023-04-22T01:16:16;12.90;99.90
28244;DHT22;15510;52.512;13.300;2023-04-22T01:18:43;12.90;99.90
28244;DHT22;15510;52.512;13.300;2023-04-22T01:21:08;12.90;99.90
28244;DHT22;15510;52.512;13.300;2023-04-22T01:23:35;12.90;99.90
28244;DHT22;15510;52.512;13.300;2023-04-22T01:26:01;12.90;99.90
28244;DHT22;15510;52.512;13.300;2023-04-22T01:28:27;12.90;99.90
28244;DHT22;15510;52.512;13.300;2023-04-22T01:30:54;12.90;99.90
28244;DHT22;15510;52.512;13.300;2023-04-22T01:33:20;12.80;99.90
28244;DHT22;15510;52.512;13.300;2023-04-22T01:35:46;12.80;99.90
28244;DHT22;15510;52.512;13.300;2023-04-22T01:38:12;12.80;99.90
28244;DHT22;15510;52.512;13.300;2023-04-22T01:40:38;12.70;99.90
28244;DHT22;15510;52.512;13.300;2023-04-22T01:43:04;12.80;99.90
28244;DHT22;15510;52.512;13.300;2023-04-22T01:45:31;12.70;99.90
28244;DHT22;15510;52.512;13.300;2023-04-22T01:47:57;12.70;99.90
28244;DHT22;15510;52.512;13.300;2023-04-22T01:50:23;12.60;99.90
28244;DHT22;15510;52.512;13.300;2023-04-22T01:52:50;12.60;99.90
28244;DHT22;15510;52.512;13.300;2023-04-22T01:55:15;12.60;99.90
28244;DHT22;15510;52.512;13.300;2023-04-22T01:57:42;12.60;99.90
28244;DHT22;15510;52.512;13.300;2023-04-22T02:00:08;12.50;99.90
28244;DHT22;15510;52.512;13.300;2023-04-22T02:02:46;12.60;99.90
28244;DHT22;15510;52.512;13.300;2023-04-22T02:05:12;12.50;99.90
28244;DHT22;15510;52.512;13.300;2023-04-22T02:07:38;12.50;99.90
28244;DHT22;15510;52.512;13.300;2023-04-22T02:10:04;12.40;99.90
28244;DHT22;15510;52.512;13.300;2023-04-22T02:12:30;12.40;99.90
28244;DHT22;15510;52.512;13.300;2023-04-22T02:14:57;12.40;99.90
28244;DHT22;15510;52.512;13.300;2023-04-22T02:17:24;12.40;99.90
28244;DHT22;15510;52.512;13.300;2023-04-22T02:19:50;12.50;99.90
28244;DHT22;15510;52.512;13.300;2023-04-22T02:22:16;12.50;99.90
28244;DHT22;15510;52.512;13.300;2023-04-22T02:24:42;12.50;99.90
28244;DHT22;15510;52.512;13.300;2023-04-22T02:27:08;12.50;99.90
28244;DHT22;15510;52.512;13.300;2023-04-22T02:29:34;12.50;99.90
28244;DHT22;15510;52.512;13.300;2023-04-22T02:32:00;12.50;99.90
28244;DHT22;15510;52.512;13.300;2023-04-22T02:34:26;12.40;99.90
28244;DHT22;15510;52.512;13.300;2023-04-22T02:36:53;12.40;99.90
28244;DHT22;15510;52.512;13.300;2023-04-22T02:39:19;12.50;99.90
28244;DHT22;15510;52.512;13.300;2023-04-22T02:41:45;12.40;99.90
28244;DHT22;15510;52.512;13.300;2023-04-22T02:44:11;12.30;99.90
28244;DHT22;15510;52.512;13.300;2023-04-22T02:46:37;12.30;99.90
28244;DHT22;15510;52.512;13.300;2023-04-22T02:49:02;12.30;99.90
28244;DHT22;15510;52.512;13.300;2023-04-22T02:51:28;12.30;99.90
28244;DHT22;15510;52.512;13.300;2023-04-22T02:53:54;12.20;99.90
28244;DHT22;15510;52.512;13.300;2023-04-22T02:56:20;12.20;99.90
28244;DHT22;15510;52.512;13.300;2023-04-22T02:58:45;12.20;99.90
28244;DHT22;15510;52.512;13.300;2023-04-22T03:01:11;12.10;99.90
28244;DHT22;15510;52.512;13.300;2023-04-22T03:03:37;12.10;99.90
28244;DHT22;15510;52.512;13.300;2023-04-22T03:06:06;12.10;99.90
28244;DHT22;15510;52.512;13.300;2023-04-22T03:08:32;12.00;99.90
28244;DHT22;15510;52.512;13.300;2023-04-22T03:10:58;12.00;99.90
28244;DHT22;15510;52.512;13.300;2023-04-22T03:13:24;12.00;99.90
28244;DHT22;15510;52.512;13.300;2023-04-22T03:15:50;11.90;99.90
28244;DHT22;15510;52.512;13.300;2023-04-22T03:18:16;12.00;99.90
28244;DHT22;15510;52.512;13.300;2023-04-22T03:20:43;11.90;99.90
28244;DHT22;15510;52.512;13.300;2023-04-22T03:23:08;11.90;99.90
28244;DHT22;15510;52.512;13.300;2023-04-22T03:25:35;11.90;99.90
28244;DHT22;15510;52.512;13.300;2023-04-22T03:28:04;11.90;99.90
28244;DHT22;15510;52.512;13.300;2023-04-22T03:30:30;11.90;99.90
28244;DHT22;15510;52.512;13.300;2023-04-22T03:32:56;11.80;99.90
28244;DHT22;15510;52.512;13.300;2023-04-22T03:35:49;11.80;99.90
28244;DHT22;15510;52.512;13.300;2023-04-22T03:38:16;11.70;99.90
28244;DHT22;15510;52.512;13.300;2023-04-22T03:40:42;11.70;99.90
28244;DHT22;15510;52.512;13.300;2023-04-22T03:43:26;11.60;99.90
28244;DHT22;15510;52.512;13.300;2023-04-22T03:46:01;11.70;99.90
28244;DHT22;15510;52.512;13.300;2023-04-22T03:48:29;11.70;99.90
28244;DHT22;15510;52.512;13.300;2023-04-22T03:51:02;11.60;99.90
28244;DHT22;15510;52.512;13.300;2023-04-22T03:53:34;11.60;99.90
28244;DHT22;15510;52.512;13.300;2023-04-22T03:55:59;11.50;99.90
28244;DHT22;15510;52.512;13.300;2023-04-22T03:58:25;11.60;99.90
28244;DHT22;15510;52.512;13.300;2023-04-22T04:00:52;11.60;99.90
28244;DHT22;15510;52.512;13.300;2023-04-22T04:03:18;11.50;99.90
28244;DHT22;15510;52.512;13.300;2023-04-22T04:05:47;11.50;99.90
28244;DHT22;15510;52.512;13.300;2023-04-22T04:08:13;11.50;99.90
28244;DHT22;15510;52.512;13.300;2023-04-22T04:10:39;11.50;99.90
28244;DHT22;15510;52.512;13.300;2023-04-22T04:13:06;11.50;99.90
28244;DHT22;15510;52.512;13.300;2023-04-22T04:15:42;11.50;99.90
28244;DHT22;15510;52.512;13.300;2023-04-22T04:18:08;11.50;99.90
28244;DHT22;15510;52.512;13.300;2023-04-22T04:20:36;11.50;99.90
28244;DHT22;15510;52.512;13.300;2023-04-22T04:23:02;11.50;99.90
28244;DHT22;15510;52.512;13.300;2023-04-22T04:25:29;11.50;99.90
28244;DHT22;15510;52.512;13.300;2023-04-22T04:28:04;11.40;99.90
28244;DHT22;15510;52.512;13.300;2023-04-22T04:30:34;11.50;99.90
28244;DHT22;15510;52.512;13.300;2023-04-22T04:33:01;11.50;99.90
28244;DHT22;15510;52.512;13.300;2023-04-22T04:35:33;11.60;99.90
28244;DHT22;15510;52.512;13.300;2023-04-22T04:38:00;11.60;99.90
28244;DHT22;15510;52.512;13.300;2023-04-22T04:40:27;11.50;99.90
28244;DHT22;15510;52.512;13.300;2023-04-22T04:43:09;11.60;99.90
28244;DHT22;15510;52.512;13.300;2023-04-22T04:45:45;11.60;99.90
28244;DHT22;15510;52.512;13.300;2023-04-22T04:48:13;11.60;99.90
28244;DHT22;15510;52.512;13.300;2023-04-22T04:50:49;11.60;99.90
28244;DHT22;15510;52.512;13.300;2023-04-22T04:53:19;11.60;99.90
28244;DHT22;15510;52.512;13.300;2023-04-22T04:55:46;11.60;99.90
28244;DHT22;15510;52.512;13.300;2023-04-22T04:58:19;11.50;99.90
28244;DHT22;15510;52.512;13.300;2023-04-22T05:00:47;11.50;99.90
28244;DHT22;15510;52.512;13.300;2023-04-22T05:03:16;11.50;99.90
28244;DHT22;15510;52.512;13.300;2023-04-22T05:05:43;11.50;99.90
28244;DHT22;15510;52.512;13.300;2023-04-22T05:08:11;11.50;99.90
28244;DHT22;15510;52.512;13.300;2023-04-22T05:10:38;11.60;99.90
28244;DHT22;15510;52.512;13.300;2023-04-22T05:13:04;11.60;99.90
28244;DHT22;15510;52.512;13.300;2023-04-22T05:15:30;11.60;99.90
28244;DHT22;15510;52.512;13.300;2023-04-22T05:17:56;11.70;99.90
28244;DHT22;15510;52.512;13.300;2023-04-22T05:20:22;11.70;99.90
28244;DHT22;15510;52.512;13.300;2023-04-22T05:22:48;11.70;99.90
28244;DHT22;15510;52.512;13.300;2023-04-22T05:25:15;11.70;99.90
28244;DHT22;15510;52.512;13.300;2023-04-22T05:27:49;11.80;99.90
28244;DHT22;15510;52.512;13.300;2023-04-22T05:30:17;11.80;99.90
28244;DHT22;15510;52.512;13.300;2023-04-22T05:32:43;11.90;99.90
28244;DHT22;15510;52.512;13.300;2023-04-22T05:35:09;11.90;99.90
28244;DHT22;15510;52.512;13.300;2023-04-22T05:37:35;11.90;99.90
28244;DHT22;15510;52.512;13.300;2023-04-22T05:40:01;11.90;99.90
28244;DHT22;15510;52.512;13.300;2023-04-22T05:42:28;12.00;99.90
28244;DHT22;15510;52.512;13.300;2023-04-22T05:44:54;12.10;99.90
28244;DHT22;15510;52.512;13.300;2023-04-22T05:47:20;12.10;99.90
28244;DHT22;15510;52.512;13.300;2023-04-22T05:49:45;12.10;99.90
28244;DHT22;15510;52.512;13.300;2023-04-22T05:52:18;12.20;99.90
28244;DHT22;15510;52.512;13.300;2023-04-22T05:55:08;12.20;99.90
28244;DHT22;15510;52.512;13.300;2023-04-22T05:57:34;12.30;99.90
28244;DHT22;15510;52.512;13.300;2023-04-22T06:00:04;12.30;99.90
28244;DHT22;15510;52.512;13.300;2023-04-22T06:02:38;12.40;99.90
28244;DHT22;15510;52.512;13.300;2023-04-22T06:05:05;12.40;99.90
28244;DHT22;15510;52.512;13.300;2023-04-22T06:07:30;12.50;99.90
28244;DHT22;15510;52.512;13.300;2023-04-22T06:09:57;12.50;99.90
28244;DHT22;15510;52.512;13.300;2023-04-22T06:12:22;12.60;99.90
28244;DHT22;15510;52.512;13.300;2023-04-22T06:14:48;12.70;99.90
28244;DHT22;15510;52.512;13.300;2023-04-22T06:17:14;12.70;99.90
28244;DHT22;15510;52.512;13.300;2023-04-22T06:19:40;12.80;99.90
28244;DHT22;15510;52.512;13.300;2023-04-22T06:22:05;12.90;99.90
28244;DHT22;15510;52.512;13.300;2023-04-22T06:24:31;13.00;99.90
28244;DHT22;15510;52.512;13.300;2023-04-22T06:26:57;13.00;99.90
28244;DHT22;15510;52.512;13.300;2023-04-22T06:29:24;13.00;99.90
28244;DHT22;15510;52.512;13.300;2023-04-22T06:31:51;13.00;99.90
28244;DHT22;15510;52.512;13.300;2023-04-22T06:34:19;13.00;99.90
28244;DHT22;15510;52.512;13.300;2023-04-22T06:36:45;13.10;99.90
28244;DHT22;15510;52.512;13.300;2023-04-22T06:39:11;13.10;99.90
28244;DHT22;15510;52.512;13.300;2023-04-22T06:41:47;13.20;99.90
28244;DHT22;15510;52.512;13.300;2023-04-22T06:44:40;13.40;99.90
28244;DHT22;15510;52.512;13.300;2023-04-22T06:47:26;13.60;99.90
28244;DHT22;15510;52.512;13.300;2023-04-22T06:50:02;13.70;99.90
28244;DHT22;15510;52.512;13.300;2023-04-22T06:52:48;13.90;99.90
28244;DHT22;15510;52.512;13.300;2023-04-22T06:55:13;14.00;99.90
28244;DHT22;15510;52.512;13.300;2023-04-22T06:57:40;14.10;99.90
28244;DHT22;15510;52.512;13.300;2023-04-22T07:00:06;14.20;99.90
28244;DHT22;15510;52.512;13.300;2023-04-22T07:02:37;14.30;99.90
28244;DHT22;15510;52.512;13.300;2023-04-22T07:05:04;14.40;99.90
28244;DHT22;15510;52.512;13.300;2023-04-22T07:07:30;14.40;99.90
28244;DHT22;15510;52.512;13.300;2023-04-22T07:09:56;14.50;99.90
28244;DHT22;15510;52.512;13.300;2023-04-22T07:12:25;14.60;99.90
28244;DHT22;15510;52.512;13.300;2023-04-22T07:14:51;14.70;99.90
28244;DHT22;15510;52.512;13.300;2023-04-22T07:17:17;14.80;99.90
28244;DHT22;15510;52.512;13.300;2023-04-22T07:19:46;14.80;99.90
28244;DHT22;15510;52.512;13.300;2023-04-22T07:22:12;15.00;99.90
28244;DHT22;15510;52.512;13.300;2023-04-22T07:24:38;15.20;99.90
28244;DHT22;15510;52.512;13.300;2023-04-22T07:27:04;15.40;99.90
28244;DHT22;15510;52.512;13.300;2023-04-22T07:29:30;15.50;99.90
28244;DHT22;15510;52.512;13.300;2023-04-22T07:31:56;15.60;99.90
28244;DHT22;15510;52.512;13.300;2023-04-22T07:34:22;15.60;99.90
28244;DHT22;15510;52.512;13.300;2023-04-22T07:36:49;15.70;99.90
28244;DHT22;15510;52.512;13.300;2023-04-22T07:39:16;15.80;99.90
28244;DHT22;15510;52.512;13.300;2023-04-22T07:41:42;15.80;99.90
28244;DHT22;15510;52.512;13.300;2023-04-22T07:44:08;15.90;99.90
28244;DHT22;15510;52.512;13.300;2023-04-22T07:46:35;16.00;99.90
28244;DHT22;15510;52.512;13.300;2023-04-22T07:49:01;16.10;99.90
28244;DHT22;15510;52.512;13.300;2023-04-22T07:51:26;16.20;99.90
28244;DHT22;15510;52.512;13.300;2023-04-22T07:53:52;16.40;99.90
28244;DHT22;15510;52.512;13.300;2023-04-22T07:56:18;16.50;99.90
28244;DHT22;15510;52.512;13.300;2023-04-22T07:58:46;16.60;99.90
28244;DHT22;15510;52.512;13.300;2023-04-22T08:01:12;16.70;99.90
28244;DHT22;15510;52.512;13.300;2023-04-22T08:03:38;16.70;99.90
28244;DHT22;15510;52.512;13.300;2023-04-22T08:06:04;16.80;99.90
28244;DHT22;15510;52.512;13.300;2023-04-22T08:08:30;16.90;99.90
28244;DHT22;15510;52.512;13.300;2023-04-22T08:10:55;17.00;99.90
28244;DHT22;15510;52.512;13.300;2023-04-22T08:13:21;17.00;99.90
28244;DHT22;15510;52.512;13.300;2023-04-22T08:15:47;17.00;99.90
28244;DHT22;15510;52.512;13.300;2023-04-22T08:18:12;17.10;99.60
28244;DHT22;15510;52.512;13.300;2023-04-22T08:20:38;17.10;99.60
28244;DHT22;15510;52.512;13.300;2023-04-22T08:23:04;17.10;99.40
28244;DHT22;15510;52.512;13.300;2023-04-22T08:25:31;17.20;99.70
28244;DHT22;15510;52.512;13.300;2023-04-22T08:27:57;17.30;99.50
28244;DHT22;15510;52.512;13.300;2023-04-22T08:30:23;17.40;98.80
28244;DHT22;15510;52.512;13.300;2023-04-22T08:32:48;17.50;98.70
28244;DHT22;15510;52.512;13.300;2023-04-22T08:35:14;17.60;98.30
28244;DHT22;15510;52.512;13.300;2023-04-22T08:37:40;17.60;98.10
28244;DHT22;15510;52.512;13.300;2023-04-22T08:40:07;17.70;98.10
28244;DHT22;15510;52.512;13.300;2023-04-22T08:42:33;17.90;97.40
28244;DHT22;15510;52.512;13.300;2023-04-22T08:45:00;18.00;97.70
28244;DHT22;15510;52.512;13.300;2023-04-22T08:47:26;18.00;97.30
28244;DHT22;15510;52.512;13.300;2023-04-22T08:49:54;18.00;97.50
28244;DHT22;15510;52.512;13.300;2023-04-22T08:52:20;18.00;97.70
28244;DHT22;15510;52.512;13.300;2023-04-22T08:54:46;18.00;97.80
28244;DHT22;15510;52.512;13.300;2023-04-22T08:57:13;18.00;97.70
28244;DHT22;15510;52.512;13.300;2023-04-22T08:59:40;18.10;97.60
28244;DHT22;15510;52.512;13.300;2023-04-22T09:02:06;18.10;98.00
28244;DHT22;15510;52.512;13.300;2023-04-22T09:04:35;18.10;98.10
28244;DHT22;15510;52.512;13.300;2023-04-22T09:07:01;18.10;98.20
28244;DHT22;15510;52.512;13.300;2023-04-22T09:09:29;18.20;97.60
28244;DHT22;15510;52.512;13.300;2023-04-22T09:11:56;18.30;98.10
28244;DHT22;15510;52.512;13.300;2023-04-22T09:14:23;18.30;97.60
28244;DHT22;15510;52.512;13.300;2023-04-22T09:16:50;18.40;97.80
28244;DHT22;15510;52.512;13.300;2023-04-22T09:19:15;18.40;97.20
28244;DHT22;15510;52.512;13.300;2023-04-22T09:21:41;18.50;97.50
28244;DHT22;15510;52.512;13.300;2023-04-22T09:24:07;18.60;97.00
28244;DHT22;15510;52.512;13.300;2023-04-22T09:26:40;18.70;97.30
28244;DHT22;15510;52.512;13.300;2023-04-22T09:29:07;18.70;97.10
28244;DHT22;15510;52.512;13.300;2023-04-22T09:31:37;18.80;96.80
28244;DHT22;15510;52.512;13.300;2023-04-22T09:34:03;18.80;96.80
28244;DHT22;15510;52.512;13.300;2023-04-22T09:36:31;18.90;96.00
28244;DHT22;15510;52.512;13.300;2023-04-22T09:39:05;18.90;96.10
28244;DHT22;15510;52.512;13.300;2023-04-22T09:41:36;18.90;97.20
28244;DHT22;15510;52.512;13.300;2023-04-22T09:44:04;18.90;96.70
28244;DHT22;15510;52.512;13.300;2023-04-22T09:46:32;18.90;96.60
28244;DHT22;15510;52.512;13.300;2023-04-22T09:49:00;19.00;96.50
28244;DHT22;15510;52.512;13.300;2023-04-22T09:51:26;19.00;96.20
28244;DHT22;15510;52.512;13.300;2023-04-22T09:54:05;19.10;95.50
28244;DHT22;15510;52.512;13.300;2023-04-22T09:56:51;19.10;95.60
28244;DHT22;15510;52.512;13.300;2023-04-22T09:59:22;19.20;94.50
28244;DHT22;15510;52.512;13.300;2023-04-22T10:01:52;19.30;94.50
28244;DHT22;15510;52.512;13.300;2023-04-22T10:04:18;19.40;94.40
28244;DHT22;15510;52.512;13.300;2023-04-22T10:06:48;19.40;94.10
28244;DHT22;15510;52.512;13.300;2023-04-22T10:09:19;19.50;94.20
28244;DHT22;15510;52.512;13.300;2023-04-22T10:11:46;19.60;93.60
28244;DHT22;15510;52.512;13.300;2023-04-22T10:14:12;19.60;93.40
28244;DHT22;15510;52.512;13.300;2023-04-22T10:16:42;19.70;93.20
28244;DHT22;15510;52.512;13.300;2023-04-22T10:19:13;19.80;92.90
28244;DHT22;15510;52.512;13.300;2023-04-22T10:21:40;19.80;92.90
28244;DHT22;15510;52.512;13.300;2023-04-22T10:24:14;19.90;92.00
28244;DHT22;15510;52.512;13.300;2023-04-22T10:29:12;20.00;90.10
28244;DHT22;15510;52.512;13.300;2023-04-22T10:31:50;20.10;89.90
28244;DHT22;15510;52.512;13.300;2023-04-22T10:34:17;20.10;89.00
28244;DHT22;15510;52.512;13.300;2023-04-22T10:36:52;20.20;89.00
28244;DHT22;15510;52.512;13.300;2023-04-22T10:39:19;20.30;89.50
28244;DHT22;15510;52.512;13.300;2023-04-22T10:44:50;20.60;83.70
28244;DHT22;15510;52.512;13.300;2023-04-22T10:47:46;20.70;78.90
28244;DHT22;15510;52.512;13.300;2023-04-22T10:52:45;20.90;80.90
28244;DHT22;15510;52.512;13.300;2023-04-22T10:55:11;21.10;77.70
28244;DHT22;15510;52.512;13.300;2023-04-22T10:57:44;21.20;79.00
28244;DHT22;15510;52.512;13.300;2023-04-22T11:00:21;21.30;75.80
28244;DHT22;15510;52.512;13.300;2023-04-22T11:05:30;21.50;71.50
28244;DHT22;15510;52.512;13.300;2023-04-22T11:08:05;22.00;70.80
28244;DHT22;15510;52.512;13.300;2023-04-22T11:13:15;23.50;66.00
28244;DHT22;15510;52.512;13.300;2023-04-22T11:15:44;24.30;62.20
28244;DHT22;15510;52.512;13.300;2023-04-22T11:18:15;25.30;59.30
28244;DHT22;15510;52.512;13.300;2023-04-22T11:20:41;26.20;58.00
28244;DHT22;15510;52.512;13.300;2023-04-22T11:23:07;27.10;55.60
28244;DHT22;15510;52.512;13.300;2023-04-22T11:25:33;27.70;53.20
28244;DHT22;15510;52.512;13.300;2023-04-22T11:27:59;28.40;50.70
28244;DHT22;15510;52.512;13.300;2023-04-22T11:30:26;28.90;49.90
28244;DHT22;15510;52.512;13.300;2023-04-22T11:32:54;29.70;48.70
28244;DHT22;15510;52.512;13.300;2023-04-22T11:35:28;30.30;46.10
28244;DHT22;15510;52.512;13.300;2023-04-22T11:40:36;31.20;42.30
28244;DHT22;15510;52.512;13.300;2023-04-22T11:43:04;31.00;42.00
28244;DHT22;15510;52.512;13.300;2023-04-22T11:45:31;31.10;40.50
28244;DHT22;15510;52.512;13.300;2023-04-22T11:47:58;31.10;39.70
28244;DHT22;15510;52.512;13.300;2023-04-22T11:50:33;30.70;40.20
28244;DHT22;15510;52.512;13.300;2023-04-22T11:53:04;31.10;39.50
28244;DHT22;15510;52.512;13.300;2023-04-22T11:55:37;31.30;39.50
28244;DHT22;15510;52.512;13.300;2023-04-22T11:58:13;31.30;38.30
28244;DHT22;15510;52.512;13.300;2023-04-22T12:00:45;31.50;37.70
28244;DHT22;15510;52.512;13.300;2023-04-22T12:03:23;31.40;37.10
28244;DHT22;15510;52.512;13.300;2023-04-22T12:08:24;31.70;36.80
28244;DHT22;15510;52.512;13.300;2023-04-22T12:10:54;31.70;36.30
28244;DHT22;15510;52.512;13.300;2023-04-22T12:13:31;31.40;36.40
28244;DHT22;15510;52.512;13.300;2023-04-22T12:16:08;31.80;35.80
28244;DHT22;15510;52.512;13.300;2023-04-22T12:18:39;32.70;35.50
28244;DHT22;15510;52.512;13.300;2023-04-22T12:21:13;32.80;34.80
28244;DHT22;15510;52.512;13.300;2023-04-22T12:23:50;32.70;34.80
28244;DHT22;15510;52.512;13.300;2023-04-22T12:26:18;32.80;34.60
28244;DHT22;15510;52.512;13.300;2023-04-22T12:28:45;33.30;33.90
28244;DHT22;15510;52.512;13.300;2023-04-22T12:31:14;33.60;33.20
28244;DHT22;15510;52.512;13.300;2023-04-22T12:33:40;34.10;32.90
28244;DHT22;15510;52.512;13.300;2023-04-22T12:36:07;34.50;32.10
28244;DHT22;15510;52.512;13.300;2023-04-22T12:38:33;34.10;31.80
28244;DHT22;15510;52.512;13.300;2023-04-22T12:41:02;33.80;32.30
28244;DHT22;15510;52.512;13.300;2023-04-22T12:43:28;33.70;32.20
28244;DHT22;15510;52.512;13.300;2023-04-22T12:45:57;33.90;32.20
28244;DHT22;15510;52.512;13.300;2023-04-22T12:48:23;33.60;31.30
28244;DHT22;15510;52.512;13.300;2023-04-22T12:50:49;33.80;31.40
28244;DHT22;15510;52.512;13.300;2023-04-22T12:53:15;34.20;31.40
28244;DHT22;15510;52.512;13.300;2023-04-22T12:55:41;34.10;31.20
28244;DHT22;15510;52.512;13.300;2023-04-22T12:58:07;34.20;30.50
28244;DHT22;15510;52.512;13.300;2023-04-22T13:00:33;34.40;30.40
28244;DHT22;15510;52.512;13.300;2023-04-22T13:03:00;33.80;30.90
28244;DHT22;15510;52.512;13.300;2023-04-22T13:05:28;33.20;30.80
28244;DHT22;15510;52.512;13.300;2023-04-22T13:07:54;33.30;31.70
28244;DHT22;15510;52.512;13.300;2023-04-22T13:10:20;33.60;31.20
28244;DHT22;15510;52.512;13.300;2023-04-22T13:13:15;34.10;30.80
28244;DHT22;15510;52.512;13.300;2023-04-22T13:15:47;34.10;32.00
28244;DHT22;15510;52.512;13.300;2023-04-22T13:18:18;34.50;30.60
28244;DHT22;15510;52.512;13.300;2023-04-22T13:20:44;35.10;30.40
28244;DHT22;15510;52.512;13.300;2023-04-22T13:23:11;36.10;30.00
28244;DHT22;15510;52.512;13.300;2023-04-22T13:25:38;36.00;29.60
28244;DHT22;15510;52.512;13.300;2023-04-22T13:28:04;35.70;29.80
28244;DHT22;15510;52.512;13.300;2023-04-22T13:30:30;35.90;29.80
28244;DHT22;15510;52.512;13.300;2023-04-22T13:32:56;36.30;29.90
28244;DHT22;15510;52.512;13.300;2023-04-22T13:35:24;36.50;29.50
28244;DHT22;15510;52.512;13.300;2023-04-22T13:37:50;36.60;29.50
28244;DHT22;15510;52.512;13.300;2023-04-22T13:40:16;36.30;29.40
28244;DHT22;15510;52.512;13.300;2023-04-22T13:42:44;35.80;29.70
28244;DHT22;15510;52.512;13.300;2023-04-22T13:45:10;36.20;29.40
28244;DHT22;15510;52.512;13.300;2023-04-22T13:47:36;36.40;29.20
28244;DHT22;15510;52.512;13.300;2023-04-22T13:50:03;36.50;29.50
28244;DHT22;15510;52.512;13.300;2023-04-22T13:52:36;37.00;29.70
28244;DHT22;15510;52.512;13.300;2023-04-22T13:55:03;37.30;28.70
28244;DHT22;15510;52.512;13.300;2023-04-22T13:57:32;37.20;28.50
28244;DHT22;15510;52.512;13.300;2023-04-22T13:59:58;36.50;28.80
28244;DHT22;15510;52.512;13.300;2023-04-22T14:02:24;36.40;29.20
28244;DHT22;15510;52.512;13.300;2023-04-22T14:04:50;35.80;29.20
28244;DHT22;15510;52.512;13.300;2023-04-22T14:07:15;36.20;29.10
28244;DHT22;15510;52.512;13.300;2023-04-22T14:09:41;36.60;28.50
28244;DHT22;15510;52.512;13.300;2023-04-22T14:12:09;37.00;28.20
28244;DHT22;15510;52.512;13.300;2023-04-22T14:14:38;37.40;28.40
28244;DHT22;15510;52.512;13.300;2023-04-22T14:17:04;37.20;28.40
28244;DHT22;15510;52.512;13.300;2023-04-22T14:19:30;36.90;28.30
28244;DHT22;15510;52.512;13.300;2023-04-22T14:21:57;36.60;28.20
28244;DHT22;15510;52.512;13.300;2023-04-22T14:24:24;36.20;28.30
28244;DHT22;15510;52.512;13.300;2023-04-22T14:26:57;35.10;28.60
28244;DHT22;15510;52.512;13.300;2023-04-22T14:29:23;33.30;29.60
28244;DHT22;15510;52.512;13.300;2023-04-22T14:31:50;31.50;30.50
28244;DHT22;15510;52.512;13.300;2023-04-22T14:34:16;29.90;32.20
28244;DHT22;15510;52.512;13.300;2023-04-22T14:36:42;28.70;34.40
28244;DHT22;15510;52.512;13.300;2023-04-22T14:39:08;27.70;34.50
28244;DHT22;15510;52.512;13.300;2023-04-22T14:41:35;26.80;35.80
28244;DHT22;15510;52.512;13.300;2023-04-22T14:44:01;26.20;36.90
28244;DHT22;15510;52.512;13.300;2023-04-22T14:46:27;25.80;38.50
28244;DHT22;15510;52.512;13.300;2023-04-22T14:48:54;25.40;38.20
28244;DHT22;15510;52.512;13.300;2023-04-22T14:51:23;24.90;38.30
28244;DHT22;15510;52.512;13.300;2023-04-22T14:53:50;24.60;38.90
28244;DHT22;15510;52.512;13.300;2023-04-22T14:56:16;24.50;39.40
28244;DHT22;15510;52.512;13.300;2023-04-22T14:58:45;24.20;40.20
28244;DHT22;15510;52.512;13.300;2023-04-22T15:01:11;24.10;41.10
28244;DHT22;15510;52.512;13.300;2023-04-22T15:03:37;24.00;41.30
28244;DHT22;15510;52.512;13.300;2023-04-22T15:06:06;23.90;41.10
28244;DHT22;15510;52.512;13.300;2023-04-22T15:08:33;23.80;41.60
28244;DHT22;15510;52.512;13.300;2023-04-22T15:10:58;23.70;41.50
28244;DHT22;15510;52.512;13.300;2023-04-22T15:13:25;23.60;41.50
28244;DHT22;15510;52.512;13.300;2023-04-22T15:15:51;23.50;42.20
28244;DHT22;15510;52.512;13.300;2023-04-22T15:18:17;23.50;42.60
28244;DHT22;15510;52.512;13.300;2023-04-22T15:20:43;23.40;42.90
28244;DHT22;15510;52.512;13.300;2023-04-22T15:23:08;23.40;42.80
28244;DHT22;15510;52.512;13.300;2023-04-22T15:25:34;23.30;41.90
28244;DHT22;15510;52.512;13.300;2023-04-22T15:28:01;23.30;41.90
28244;DHT22;15510;52.512;13.300;2023-04-22T15:30:27;23.20;42.10
28244;DHT22;15510;52.512;13.300;2023-04-22T15:32:53;23.10;42.00
28244;DHT22;15510;52.512;13.300;2023-04-22T15:35:21;23.00;42.50
28244;DHT22;15510;52.512;13.300;2023-04-22T15:37:47;22.90;42.20